Centralia, IL

7:12 PM CDT on May 24, 2015 (GMT -0500)
Holiday Terrace | | Change Station
CLOSE
Current Station
Personal Weather Station
Location: Centralia, IL
Elevation: 534 ft
Nearby Weather Stations
Active Advisory: Tornado Watch Active Notice: Public Information Statement

Elev 534 ft 38.52 °N, 89.11 °W | Updated 1 minute ago

Mostly Cloudy
Mostly Cloudy
81.4 °F
Feels Like 84 °F
N
2.0
Wind Variable Wind from SSW
Gusts 12.0 mph

Today
High -- | Low -- °F
--% Chance of Precip.
Yesterday
High -- | Low -- °F
Precip. -- in
5:38 AM 8:08 PM
Waxing Crescent, 43% visible
Pressure 29.95 in
Visibility 10.0 miles
Clouds Scattered Clouds 5000 ft
Mostly Cloudy 7000 ft
Mostly Cloudy 8500 ft
Heat Index 84 °F
Dew Point 68 °F
Humidity 65%
Rainfall 0.00 in
Snow Depth Not available.
UV 0 out of 12
Pollen 6.60 out of 12
Air Quality Not available.
Flu Activity Sporadic
METAR KENL 242355Z AUTO 15013G18KT 10SM SCT050 BKN070 BKN085 27/17 A2995 RMK AO2 T02670170 10303 20267

More Conditions Fewer Conditions

Pressure 29.95 in
Visibility 10.0 miles
Clouds Scattered Clouds 5000 ft
Mostly Cloudy 7000 ft
Mostly Cloudy 8500 ft
Heat Index 84 °F
Dew Point 68 °F
Humidity 65%
Rainfall 0.00 in
Snow Depth Not available.
UV 0 out of 12
Pollen 6.60 out of 12
Air Quality Not available.
Flu Activity Sporadic
METAR KENL 242355Z AUTO 15013G18KT 10SM SCT050 BKN070 BKN085 27/17 A2995 RMK AO2 T02670170 10303 20267

More Conditions Fewer Conditions

10-Day Weather Forecast

Almanac

Astronomy

May. 24, 2015 Rise Set
Actual Time
Civil Twilight
Nautical Twilight
Astronomical Twilight
Moon
Length of Visible Light
Length of Day
Tomorrow will be .
, % of the Moon is Illuminated

Today's Extremes

State Highs State Lows

Community

WunderPhotos

Upload Photos

1,823,900 photos uploaded!

WunderBlogs® & News

Nearby

Air Quality

  Air Quality AQ Index Pollutant
Not available.

Snow Depth

Station Depth Elevation

Earthquake Activity

City Distance Mag. Time & Date
Minimum magnitude displayed is 2.5.

Coastal Water Temperatures

Place Temperature

Stations

Nearby Weather Stations

Station Location Temp. Windchill Dew Point Humidity Wind Precip. Elev Updated Type
                   
Tornado Watch
Statement as of 7:03 PM CDT on May 24, 2015

Tornado Watch 205 remains in effect until 1000 PM CDT for the
following locations

IL
. Illinois counties included are

Adams Alexander Bond
Brown Calhoun Clinton
Fayette Greene Jackson
Jersey Macoupin Madison
Marion Monroe Montgomery
Perry Pike Pulaski
Randolph St. Clair Union
Washington